createdAt,value
2024-02-28T00:02:30.383Z,25.40
2024-02-28T00:05:41.920Z,25.40
2024-02-28T00:08:57.612Z,25.40
2024-02-28T00:12:08.205Z,25.40
2024-02-28T00:15:21.008Z,25.30
2024-02-28T00:18:34.684Z,25.30
2024-02-28T00:21:50.075Z,25.30
2024-02-28T00:25:02.742Z,25.20
2024-02-28T00:28:12.260Z,25.20
2024-02-28T00:31:25.251Z,25.10
2024-02-28T00:34:38.480Z,25.00
2024-02-28T00:37:47.593Z,25.10
2024-02-28T00:40:57.777Z,25.10
2024-02-28T00:44:13.800Z,25.00
2024-02-28T00:47:23.236Z,25.00
2024-02-28T00:50:31.996Z,25.00
2024-02-28T00:53:43.858Z,25.00
2024-02-28T00:56:55.019Z,24.90
2024-02-28T01:00:08.039Z,24.90
2024-02-28T01:03:22.025Z,24.90
2024-02-28T01:06:34.717Z,24.90
2024-02-28T01:09:45.483Z,24.90
2024-02-28T01:12:58.647Z,24.90
2024-02-28T01:16:11.942Z,24.80
2024-02-28T01:19:21.952Z,24.80
2024-02-28T01:22:33.712Z,24.80
2024-02-28T01:25:45.526Z,24.90
2024-02-28T01:28:57.756Z,24.80
2024-02-28T01:32:10.476Z,24.80
2024-02-28T01:35:22.608Z,24.80
2024-02-28T01:38:36.617Z,24.80
2024-02-28T01:41:50.055Z,24.80
2024-02-28T01:45:01.993Z,24.70
2024-02-28T01:48:15.752Z,24.70
2024-02-28T01:51:28.313Z,24.70
2024-02-28T01:54:41.694Z,24.70
2024-02-28T01:57:55.194Z,24.70
2024-02-28T02:01:10.378Z,24.70
2024-02-28T02:04:21.694Z,24.80
2024-02-28T02:07:33.991Z,24.80
2024-02-28T02:10:47.780Z,24.80
2024-02-28T02:14:01.346Z,24.80
2024-02-28T02:17:12.775Z,24.80
2024-02-28T02:20:21.687Z,24.80
2024-02-28T02:23:36.151Z,24.80
2024-02-28T02:26:48.565Z,24.80
2024-02-28T02:29:59.374Z,24.80
2024-02-28T02:33:14.618Z,24.80
2024-02-28T02:36:24.522Z,24.80
2024-02-28T02:39:36.581Z,24.80
2024-02-28T02:42:49.186Z,24.80
2024-02-28T02:45:57.964Z,24.80
2024-02-28T02:49:09.904Z,24.80
2024-02-28T02:52:21.986Z,24.80
2024-02-28T02:55:35.334Z,24.80
2024-02-28T02:58:43.516Z,24.80
2024-02-28T03:01:55.198Z,24.80
2024-02-28T03:05:06.820Z,24.80
2024-02-28T03:08:19.971Z,24.80
2024-02-28T03:11:29.161Z,24.80
2024-02-28T03:14:40.487Z,24.90
2024-02-28T03:17:49.553Z,25.00
2024-02-28T03:21:00.971Z,25.10
2024-02-28T03:24:11.310Z,25.20
2024-02-28T03:27:18.996Z,25.30
2024-02-28T03:30:30.790Z,25.40
2024-02-28T03:33:44.194Z,25.50
2024-02-28T03:36:55.073Z,25.50
2024-02-28T03:40:05.279Z,25.40
2024-02-28T03:43:18.109Z,25.40
2024-02-28T03:46:30.895Z,25.30
2024-02-28T03:49:42.636Z,25.30
2024-02-28T03:52:54.446Z,25.20
2024-02-28T03:56:05.439Z,25.20
2024-02-28T03:59:18.121Z,25.10
2024-02-28T04:02:31.672Z,25.10
2024-02-28T04:05:43.226Z,25.00
2024-02-28T04:08:52.417Z,25.00
2024-02-28T04:12:05.815Z,25.00
2024-02-28T04:15:16.831Z,24.90
2024-02-28T04:18:28.915Z,24.90
2024-02-28T04:21:41.714Z,24.90
2024-02-28T04:24:55.463Z,24.90
2024-02-28T04:28:04.228Z,24.90
2024-02-28T04:31:15.468Z,24.80
2024-02-28T04:34:27.427Z,24.80
2024-02-28T04:37:39.971Z,24.80
2024-02-28T04:40:53.384Z,24.80
2024-02-28T04:44:02.783Z,24.80
2024-02-28T04:47:12.227Z,24.70
2024-02-28T04:50:23.994Z,24.70
2024-02-28T04:53:31.749Z,24.80
2024-02-28T04:56:45.720Z,24.80
2024-02-28T04:59:57.107Z,24.80
2024-02-28T05:03:09.220Z,24.70
2024-02-28T05:06:18.020Z,24.70
2024-02-28T05:09:31.589Z,24.70
2024-02-28T05:15:57.783Z,24.70
2024-02-28T05:19:10.788Z,24.70
2024-02-28T05:22:22.940Z,24.70
2024-02-28T05:25:35.230Z,24.60
2024-02-28T05:28:48.111Z,24.60
2024-02-28T05:32:01.821Z,24.60
2024-02-28T05:35:16.252Z,24.60
2024-02-28T05:38:28.871Z,24.50
2024-02-28T05:41:43.397Z,24.50
2024-02-28T05:44:55.977Z,24.50
2024-02-28T05:48:06.360Z,24.50
2024-02-28T05:51:22.523Z,24.50
2024-02-28T05:54:35.883Z,24.50
2024-02-28T05:57:48.171Z,24.40
2024-02-28T06:00:59.387Z,24.40
2024-02-28T06:04:14.268Z,24.40
2024-02-28T06:07:27.780Z,24.40
2024-02-28T06:10:41.149Z,24.40
2024-02-28T06:13:57.837Z,24.40
2024-02-28T06:17:07.131Z,24.40
2024-02-28T06:20:21.769Z,24.40
2024-02-28T06:23:35.148Z,24.40
2024-02-28T06:26:49.302Z,24.30
2024-02-28T06:30:00.581Z,24.30
2024-02-28T06:33:13.648Z,24.30
2024-02-28T06:36:26.382Z,24.30
2024-02-28T06:39:41.807Z,24.30
2024-02-28T06:42:53.706Z,24.20
2024-02-28T06:46:03.986Z,24.20
2024-02-28T06:49:14.289Z,24.20
2024-02-28T06:52:30.537Z,24.20
2024-02-28T06:55:42.316Z,24.20
2024-02-28T06:58:51.999Z,24.20
2024-02-28T07:02:02.595Z,24.20
2024-02-28T07:05:16.366Z,24.20
2024-02-28T07:08:29.374Z,24.20
2024-02-28T07:11:43.396Z,24.20
2024-02-28T07:14:55.113Z,24.10
2024-02-28T07:18:08.221Z,24.10
2024-02-28T07:21:22.550Z,24.10
2024-02-28T07:24:36.072Z,24.10
2024-02-28T07:27:49.339Z,24.10
2024-02-28T07:30:55.206Z,24.10
2024-02-28T07:34:08.304Z,24.10
2024-02-28T07:37:21.027Z,24.10
2024-02-28T07:40:33.602Z,24.00
2024-02-28T07:43:45.238Z,24.00
2024-02-28T07:46:53.855Z,24.00
2024-02-28T07:50:05.993Z,24.00
2024-02-28T07:53:17.092Z,24.00
2024-02-28T07:56:27.903Z,24.00
2024-02-28T07:59:38.867Z,24.00
2024-02-28T08:02:50.178Z,23.90
2024-02-28T08:06:02.833Z,23.90
2024-02-28T08:09:15.179Z,23.90
2024-02-28T08:12:28.476Z,23.90
2024-02-28T08:15:34.865Z,23.90
2024-02-28T08:18:48.969Z,23.90
2024-02-28T08:21:59.065Z,23.90
2024-02-28T08:25:13.556Z,23.90
2024-02-28T08:28:24.652Z,23.90
2024-02-28T08:31:36.198Z,23.80
2024-02-28T08:34:52.801Z,23.90
2024-02-28T08:38:06.830Z,23.80
2024-02-28T08:41:20.085Z,23.80
2024-02-28T08:44:30.123Z,23.80
2024-02-28T08:47:45.089Z,23.80
2024-02-28T08:50:56.810Z,23.80
2024-02-28T08:54:10.363Z,23.80
2024-02-28T08:57:19.781Z,23.80
2024-02-28T09:00:34.651Z,23.80
2024-02-28T09:03:46.580Z,23.70
2024-02-28T09:07:00.281Z,23.70
2024-02-28T09:10:13.928Z,23.70
2024-02-28T09:13:24.694Z,23.70
2024-02-28T09:16:36.157Z,23.70
2024-02-28T09:19:50.405Z,23.70
2024-02-28T09:23:03.108Z,23.70
2024-02-28T09:26:15.421Z,23.70
2024-02-28T09:29:25.907Z,23.70
2024-02-28T09:32:35.436Z,23.70
2024-02-28T09:35:47.028Z,23.70
2024-02-28T09:38:58.955Z,23.60
2024-02-28T09:42:12.664Z,23.60
2024-02-28T09:45:24.930Z,23.60
2024-02-28T09:48:36.817Z,23.60
2024-02-28T09:51:46.464Z,23.60
2024-02-28T09:54:56.152Z,23.60
2024-02-28T09:58:07.208Z,23.60
2024-02-28T10:01:20.622Z,23.60
2024-02-28T10:04:30.005Z,23.60
2024-02-28T10:07:42.314Z,23.70
2024-02-28T10:10:56.425Z,23.80
2024-02-28T10:14:09.378Z,23.90
2024-02-28T10:17:18.604Z,24.10
2024-02-28T10:20:30.700Z,24.20
2024-02-28T10:23:43.593Z,24.20
2024-02-28T10:26:58.661Z,24.30
2024-02-28T10:30:12.431Z,24.40
2024-02-28T10:33:22.207Z,24.40
2024-02-28T10:36:33.368Z,24.40
2024-02-28T10:39:47.351Z,24.40
2024-02-28T10:43:00.795Z,24.30
2024-02-28T10:46:26.329Z,24.20
2024-02-28T10:49:25.727Z,24.20
2024-02-28T10:52:36.640Z,24.20
2024-02-28T10:55:50.031Z,24.20
2024-02-28T10:59:08.570Z,24.10
2024-02-28T11:02:22.441Z,24.10
2024-02-28T11:05:44.882Z,24.10
2024-02-28T11:08:58.111Z,24.00
2024-02-28T11:12:09.596Z,24.00
2024-02-28T11:15:23.201Z,24.00
2024-02-28T11:18:36.148Z,24.00
2024-02-28T11:21:47.084Z,23.90
2024-02-28T11:25:02.420Z,23.90
2024-02-28T11:28:15.978Z,23.90
2024-02-28T11:31:28.194Z,23.90
2024-02-28T11:34:43.467Z,23.90
2024-02-28T11:37:53.395Z,23.90
2024-02-28T11:41:06.618Z,23.90
2024-02-28T11:44:16.090Z,23.90
2024-02-28T11:47:26.523Z,23.80
2024-02-28T11:50:37.970Z,23.80
2024-02-28T11:53:51.783Z,23.80
2024-02-28T11:57:02.201Z,23.80
2024-02-28T12:00:17.587Z,23.80
2024-02-28T12:03:31.048Z,23.80
2024-02-28T12:06:42.559Z,23.80
2024-02-28T12:09:54.017Z,23.80
2024-02-28T12:13:10.612Z,23.80
2024-02-28T12:16:20.727Z,23.90
2024-02-28T12:19:35.943Z,24.00
2024-02-28T12:22:53.029Z,24.10
2024-02-28T12:26:06.080Z,24.20
2024-02-28T12:29:15.245Z,24.30
2024-02-28T12:32:29.794Z,24.40
2024-02-28T12:35:45.160Z,24.50
2024-02-28T12:38:57.820Z,24.60
2024-02-28T12:42:07.359Z,24.70
2024-02-28T12:45:15.706Z,24.80
2024-02-28T12:48:26.852Z,24.90
2024-02-28T12:51:47.957Z,24.90
2024-02-28T12:54:56.491Z,25.10
2024-02-28T12:58:11.822Z,25.10
2024-02-28T13:01:24.701Z,25.10
2024-02-28T13:04:38.177Z,25.30
2024-02-28T13:07:53.030Z,25.30
2024-02-28T13:11:02.705Z,25.30
2024-02-28T13:14:10.873Z,25.30
2024-02-28T13:17:24.500Z,25.30
2024-02-28T13:20:38.885Z,25.20
2024-02-28T13:23:51.200Z,25.20
2024-02-28T13:27:00.787Z,25.10
2024-02-28T13:30:15.145Z,25.10
2024-02-28T13:33:27.097Z,25.00
2024-02-28T13:36:40.489Z,24.90
2024-02-28T13:39:53.862Z,24.90
2024-02-28T13:43:07.196Z,24.90
2024-02-28T13:46:22.881Z,24.80
2024-02-28T13:49:35.552Z,24.80
2024-02-28T13:52:51.165Z,24.80
2024-02-28T13:56:03.200Z,24.70
2024-02-28T13:59:16.298Z,24.70
2024-02-28T14:02:27.796Z,24.70
2024-02-28T14:05:41.983Z,24.70
2024-02-28T14:08:55.898Z,24.70
2024-02-28T14:12:05.641Z,24.80
2024-02-28T14:15:22.228Z,24.80
2024-02-28T14:18:32.649Z,24.80
2024-02-28T14:21:44.562Z,24.80
2024-02-28T14:24:57.974Z,24.90
2024-02-28T14:28:12.324Z,24.90
2024-02-28T14:31:23.308Z,24.90
2024-02-28T14:34:34.028Z,24.90
2024-02-28T14:37:43.371Z,24.90
2024-02-28T14:40:56.101Z,24.90
2024-02-28T14:44:09.814Z,25.00
2024-02-28T14:47:21.898Z,25.00
2024-02-28T14:50:35.304Z,25.10
2024-02-28T14:53:45.220Z,25.10
2024-02-28T14:56:57.024Z,25.00
2024-02-28T15:00:13.667Z,25.00
2024-02-28T15:03:23.050Z,25.10
2024-02-28T15:06:34.616Z,25.10
2024-02-28T15:09:49.485Z,25.20
2024-02-28T15:13:04.255Z,25.20
2024-02-28T15:16:14.964Z,25.30
2024-02-28T15:19:27.957Z,25.40
2024-02-28T15:22:42.058Z,25.50
2024-02-28T15:25:57.767Z,25.50
2024-02-28T15:29:08.311Z,25.50
2024-02-28T15:32:19.269Z,25.60
2024-02-28T15:35:34.047Z,25.60
2024-02-28T15:38:47.370Z,25.60
2024-02-28T15:41:54.912Z,25.60
2024-02-28T15:45:09.380Z,25.60
2024-02-28T15:48:23.016Z,25.60
2024-02-28T15:51:37.447Z,25.60
2024-02-28T15:54:46.902Z,25.70
2024-02-28T15:57:59.694Z,25.70
2024-02-28T16:01:10.900Z,25.70
2024-02-28T16:04:22.682Z,25.70
2024-02-28T16:07:35.529Z,25.70
2024-02-28T16:10:48.813Z,25.70
2024-02-28T16:14:00.545Z,25.80
2024-02-28T16:17:17.504Z,25.80
2024-02-28T16:20:28.910Z,25.80
2024-02-28T16:23:40.162Z,25.80
2024-02-28T16:26:54.993Z,25.80
2024-02-28T16:30:07.740Z,25.80
2024-02-28T16:33:21.806Z,25.80
2024-02-28T16:36:33.915Z,25.80
2024-02-28T16:39:46.674Z,25.80
2024-02-28T16:42:59.456Z,25.80
2024-02-28T16:46:09.078Z,25.80
2024-02-28T16:49:19.409Z,25.90
2024-02-28T16:52:30.387Z,25.90
2024-02-28T16:55:46.062Z,25.90
2024-02-28T16:58:57.296Z,25.90
2024-02-28T17:02:10.169Z,25.90
2024-02-28T17:05:20.786Z,25.80
2024-02-28T17:08:34.026Z,25.80
2024-02-28T17:11:45.225Z,25.80
2024-02-28T17:14:59.106Z,25.80
2024-02-28T17:18:12.405Z,25.70
2024-02-28T17:21:24.514Z,25.70
2024-02-28T17:24:39.003Z,25.70
2024-02-28T17:27:50.823Z,25.70
2024-02-28T17:31:03.250Z,25.70
2024-02-28T17:34:16.244Z,25.70
2024-02-28T17:37:27.861Z,25.70
2024-02-28T17:40:41.072Z,25.70
2024-02-28T17:43:53.668Z,25.70
2024-02-28T17:47:08.505Z,25.70
2024-02-28T17:50:19.798Z,25.60
2024-02-28T17:53:31.143Z,25.60
2024-02-28T17:56:47.061Z,25.60
2024-02-28T17:59:58.332Z,25.60
2024-02-28T18:03:11.381Z,25.70
2024-02-28T18:06:20.196Z,25.70
2024-02-28T18:09:30.283Z,25.60
2024-02-28T18:12:39.805Z,25.60
2024-02-28T18:15:52.551Z,25.50
2024-02-28T18:19:04.394Z,25.50
2024-02-28T18:22:13.197Z,25.50
2024-02-28T18:25:28.505Z,25.50
2024-02-28T18:28:39.719Z,25.40
2024-02-28T18:31:51.501Z,25.40
2024-02-28T18:35:03.728Z,25.40
2024-02-28T18:38:15.687Z,25.40
2024-02-28T18:41:28.204Z,25.30
2024-02-28T18:44:40.315Z,25.30
2024-02-28T18:47:51.409Z,25.30
2024-02-28T18:51:03.832Z,25.30
2024-02-28T18:54:13.705Z,25.30
2024-02-28T18:57:24.537Z,25.30
2024-02-28T19:00:36.670Z,25.30
2024-02-28T19:03:47.866Z,25.20
2024-02-28T19:07:00.905Z,25.20
2024-02-28T19:10:12.577Z,25.20
2024-02-28T19:13:26.166Z,25.30
2024-02-28T19:16:37.183Z,25.30
2024-02-28T19:19:48.092Z,25.30
2024-02-28T19:23:01.454Z,25.20
2024-02-28T19:26:14.589Z,25.10
2024-02-28T19:29:20.886Z,25.00
2024-02-28T19:32:33.593Z,24.90
2024-02-28T19:35:46.107Z,24.90
2024-02-28T19:39:01.063Z,24.90
2024-02-28T19:42:14.217Z,24.80
2024-02-28T19:45:25.896Z,24.70
2024-02-28T19:48:34.981Z,24.70
2024-02-28T19:51:48.294Z,24.70
2024-02-28T19:55:01.069Z,24.70
2024-02-28T19:58:11.963Z,24.70
2024-02-28T20:01:20.584Z,24.70
2024-02-28T20:04:34.095Z,24.80
2024-02-28T20:07:49.341Z,24.80
2024-02-28T20:11:00.275Z,24.80
2024-02-28T20:14:09.479Z,24.80
2024-02-28T20:17:21.122Z,24.70
2024-02-28T20:20:31.860Z,24.70
2024-02-28T20:23:42.988Z,24.70
2024-02-28T20:26:56.351Z,24.80
2024-02-28T20:30:08.879Z,24.70
2024-02-28T20:33:22.875Z,24.70
2024-02-28T20:36:35.636Z,24.80
2024-02-28T20:39:47.451Z,24.90
2024-02-28T20:43:00.349Z,24.80
2024-02-28T20:46:11.538Z,24.80
2024-02-28T20:49:22.778Z,24.80
2024-02-28T20:52:35.534Z,24.90
2024-02-28T20:55:45.420Z,25.00
2024-02-28T20:58:57.083Z,25.10
2024-02-28T21:02:07.296Z,25.30
2024-02-28T21:05:16.729Z,25.30
2024-02-28T21:08:28.516Z,25.50
2024-02-28T21:11:40.740Z,25.60
2024-02-28T21:14:51.414Z,25.70
2024-02-28T21:18:03.563Z,25.80
2024-02-28T21:21:13.604Z,25.90
2024-02-28T21:24:23.552Z,26.00
2024-02-28T21:27:35.647Z,26.00
2024-02-28T21:30:46.595Z,26.10
2024-02-28T21:33:54.062Z,26.10
2024-02-28T21:37:05.894Z,26.20
2024-02-28T21:40:19.042Z,26.10
2024-02-28T21:43:26.700Z,26.00
2024-02-28T21:46:39.478Z,25.90
2024-02-28T21:49:51.230Z,25.80
2024-02-28T21:53:05.181Z,25.70
2024-02-28T21:56:18.737Z,25.60
2024-02-28T21:59:32.120Z,25.50
2024-02-28T22:02:43.941Z,25.50
2024-02-28T22:05:53.601Z,25.40
2024-02-28T22:09:03.897Z,25.30
2024-02-28T22:12:16.736Z,25.30
2024-02-28T22:15:29.762Z,25.30
2024-02-28T22:18:40.756Z,25.30
2024-02-28T22:21:53.366Z,25.20
2024-02-28T22:25:07.174Z,25.10
2024-02-28T22:28:17.707Z,25.10
2024-02-28T22:31:27.694Z,25.10
2024-02-28T22:34:38.737Z,25.10
2024-02-28T22:37:53.129Z,25.00
2024-02-28T22:41:04.098Z,25.00
2024-02-28T22:44:16.801Z,24.90
2024-02-28T22:47:26.773Z,24.90
2024-02-28T22:50:39.425Z,24.90
2024-02-28T22:53:52.954Z,24.90
2024-02-28T22:57:08.593Z,24.80
2024-02-28T23:00:39.792Z,24.90
2024-02-28T23:03:51.042Z,24.90
2024-02-28T23:07:04.413Z,24.80
2024-02-28T23:10:21.434Z,24.80
2024-02-28T23:13:37.008Z,24.80
2024-02-28T23:16:47.816Z,24.80
2024-02-28T23:20:01.126Z,24.70
2024-02-28T23:23:15.693Z,24.70
2024-02-28T23:26:26.733Z,24.70
2024-02-28T23:29:37.061Z,24.70
2024-02-28T23:32:46.492Z,24.70
2024-02-28T23:35:56.179Z,24.70
2024-02-28T23:39:08.488Z,24.70
2024-02-28T23:42:21.006Z,24.70
2024-02-28T23:45:32.591Z,24.70
2024-02-28T23:48:42.460Z,24.70
2024-02-28T23:51:54.048Z,24.60
2024-02-28T23:55:07.928Z,24.60
2024-02-28T23:58:25.025Z,24.70
